Terminal Aerodrome Forecast
Issued by NWS

Home | Current Version | Previous Version | Text Only | Print | Product List | Glossary On
Versions: 1 2 3 4 5 6 7 8 9 10 11 12 13 14
000
FTUS43 KLSX 111129
TAFSUS
TAF
KSUS 111129Z 1112/1212 VRB04KT P6SM OVC040
     FM111400 17009KT P6SM OVC030
     FM111800 18010G17KT P6SM -RA OVC030
     FM120000 21008KT 5SM -RA OVC020
     FM120200 25006KT P6SM OVC008
     FM120500 31008KT P6SM OVC012=

USA.gov is the U.S. government's official web portal to all federal, state and local government web resources and services.